Time;durP1;ratioP1;P1;durP2;ratioP2;P2;SDS_P1;SDS_P2;PMS_P1;PMS_P2;Temp;Humidity;BMP_temperature;BMP_pressure;BME280_temperature;BME280_humidity;BME280_pressure;Samples;Min_cycle;Max_cycle;Signal;HPM_P1;HPM_P2
2020/12/02 00:00:04;;;;;;;35.03;19.50;;;;;;;;;;2060661;28;20681;-54
2020/12/02 00:01:14;;;;;;;35.17;19.50;;;;;;;;;;2060091;28;20675;-56
2020/12/02 00:02:15;;;;;;;33.17;19.40;;;;;;;;;;2068812;28;20178;-54
2020/12/02 00:03:18;;;;;;;31.43;18.97;;;;;;;;;;2066927;28;20181;-57
2020/12/02 00:04:20;;;;;;;36.17;20.73;;;;;;;;;;2070493;28;20208;-55
2020/12/02 00:05:21;;;;;;;34.87;19.40;;;;;;;;;;2074948;28;20173;-55
2020/12/02 00:06:22;;;;;;;33.73;20.03;;;;;;;;;;2066342;28;20236;-54
2020/12/02 00:07:23;;;;;;;34.47;19.20;;;;;;;;;;2063719;28;20188;-53
2020/12/02 00:08:37;;;;;;;36.37;20.43;;;;;;;;;;2075636;28;20189;-51
2020/12/02 00:09:37;;;;;;;32.57;19.00;;;;;;;;;;2075489;28;20230;-56
2020/12/02 00:10:38;;;;;;;31.50;19.27;;;;;;;;;;2077467;28;20191;-55
2020/12/02 00:11:39;;;;;;;31.17;19.30;;;;;;;;;;2065103;28;20189;-55
2020/12/02 00:12:39;;;;;;;30.90;19.67;;;;;;;;;;2066377;28;20256;-57
2020/12/02 00:13:41;;;;;;;32.13;20.30;;;;;;;;;;2067529;28;20219;-57
2020/12/02 00:14:41;;;;;;;30.87;19.47;;;;;;;;;;2064109;28;20181;-57
2020/12/02 00:15:41;;;;;;;30.60;18.80;;;;;;;;;;2074848;28;20217;-54
2020/12/02 00:16:42;;;;;;;28.63;18.80;;;;;;;;;;2074870;28;20177;-55
2020/12/02 00:17:42;;;;;;;28.87;18.57;;;;;;;;;;2074476;28;20194;-56
2020/12/02 00:18:42;;;;;;;32.03;19.33;;;;;;;;;;2067740;28;20165;-54
2020/12/02 00:19:42;;;;;;;29.47;19.13;;;;;;;;;;2065934;28;20198;-54
2020/12/02 00:20:43;;;;;;;31.00;19.07;;;;;;;;;;2071692;28;20183;-57
2020/12/02 00:21:57;;;;;;;32.63;19.23;;;;;;;;;;2074462;28;20586;-55
2020/12/02 00:22:57;;;;;;;30.80;18.30;;;;;;;;;;2075125;28;20180;-55
2020/12/02 00:23:58;;;;;;;27.70;17.90;;;;;;;;;;2075628;28;20173;-57
2020/12/02 00:24:58;;;;;;;30.50;18.87;;;;;;;;;;2074971;28;20189;-53
2020/12/02 00:25:58;;;;;;;32.47;19.10;;;;;;;;;;2074603;28;20193;-54
2020/12/02 00:26:59;;;;;;;29.43;19.40;;;;;;;;;;2076350;28;20200;-52
2020/12/02 00:28:01;;;;;;;27.67;19.37;;;;;;;;;;2066234;28;20743;-57
2020/12/02 00:29:02;;;;;;;32.43;18.67;;;;;;;;;;2066068;28;20209;-55
2020/12/02 00:30:04;;;;;;;29.33;18.00;;;;;;;;;;2059403;28;20178;-52
2020/12/02 00:31:04;;;;;;;29.37;18.63;;;;;;;;;;2071973;28;20182;-53
2020/12/02 00:32:05;;;;;;;28.07;18.40;;;;;;;;;;2067708;28;20185;-54
2020/12/02 00:33:15;;;;;;;29.03;18.57;;;;;;;;;;2070496;28;20176;-55
2020/12/02 00:34:15;;;;;;;31.37;19.50;;;;;;;;;;2076001;28;20176;-52
2020/12/02 00:35:17;;;;;;;29.43;18.20;;;;;;;;;;2078316;28;20540;-52
2020/12/02 00:36:18;;;;;;;29.77;18.17;;;;;;;;;;2082104;28;20207;-54
2020/12/02 00:37:18;;;;;;;32.07;19.83;;;;;;;;;;2075781;28;20208;-55
2020/12/02 00:38:20;;;;;;;30.43;18.80;;;;;;;;;;2075817;28;20169;-56
2020/12/02 00:39:20;;;;;;;29.70;18.77;;;;;;;;;;2078931;28;20274;-52
2020/12/02 00:40:20;;;;;;;28.43;18.90;;;;;;;;;;2084541;28;20678;-54
2020/12/02 00:41:20;;;;;;;30.13;19.00;;;;;;;;;;2068109;28;20277;-54
2020/12/02 00:42:21;;;;;;;27.60;18.33;;;;;;;;;;2068170;28;20260;-53
2020/12/02 00:43:23;;;;;;;27.70;18.60;;;;;;;;;;2067797;28;20169;-55
2020/12/02 00:44:23;;;;;;;31.27;20.60;;;;;;;;;;2058915;28;20186;-52
2020/12/02 00:45:24;;;;;;;27.80;18.37;;;;;;;;;;2059704;28;20174;-52
2020/12/02 00:46:24;;;;;;;30.77;19.27;;;;;;;;;;2064383;28;20178;-54
2020/12/02 00:47:25;;;;;;;25.90;17.77;;;;;;;;;;2081683;28;20196;-56
2020/12/02 00:48:26;;;;;;;30.03;19.00;;;;;;;;;;2072819;28;20282;-54
2020/12/02 00:49:27;;;;;;;32.00;18.73;;;;;;;;;;2057289;28;20233;-55
2020/12/02 00:50:27;;;;;;;27.93;18.83;;;;;;;;;;2061991;28;20220;-54
2020/12/02 00:51:28;;;;;;;32.37;18.53;;;;;;;;;;2073613;28;20885;-55
2020/12/02 00:52:28;;;;;;;29.97;19.70;;;;;;;;;;2081605;28;20173;-53
2020/12/02 00:53:30;;;;;;;30.33;18.63;;;;;;;;;;2076218;28;20219;-55
2020/12/02 00:54:31;;;;;;;26.60;17.63;;;;;;;;;;2068504;28;20174;-55
2020/12/02 00:55:31;;;;;;;29.33;18.90;;;;;;;;;;2069993;28;20170;-57
2020/12/02 00:56:32;;;;;;;29.57;19.30;;;;;;;;;;2074307;28;20177;-55
2020/12/02 00:57:34;;;;;;;26.57;18.07;;;;;;;;;;2073944;28;20173;-53
2020/12/02 00:58:47;;;;;;;27.13;17.90;;;;;;;;;;2069606;28;20360;-54
2020/12/02 00:59:54;;;;;;;27.67;17.77;;;;;;;;;;2060117;28;20178;-54
2020/12/02 01:00:56;;;;;;;27.07;17.80;;;;;;;;;;2061803;28;20253;-55
2020/12/02 01:02:31;;;;;;;26.97;17.30;;;;;;;;;;2051773;28;20179;-54
2020/12/02 01:03:32;;;;;;;29.37;18.53;;;;;;;;;;2054880;28;20198;-57
2020/12/02 01:04:35;;;;;;;31.03;19.17;;;;;;;;;;2059020;28;20170;-57
2020/12/02 01:05:36;;;;;;;28.40;18.37;;;;;;;;;;2060225;28;20365;-59
2020/12/02 01:06:36;;;;;;;27.20;19.10;;;;;;;;;;2077699;28;20200;-57
2020/12/02 01:07:39;;;;;;;29.33;19.20;;;;;;;;;;2078122;28;20179;-57
2020/12/02 01:08:41;;;;;;;31.27;19.37;;;;;;;;;;2077785;28;20201;-56
2020/12/02 01:09:41;;;;;;;30.80;19.13;;;;;;;;;;2087487;23;20232;-59
2020/12/02 01:10:42;;;;;;;29.23;19.53;;;;;;;;;;2072221;28;20181;-52
2020/12/02 01:11:43;;;;;;;33.57;19.80;;;;;;;;;;2071588;28;20192;-54
2020/12/02 01:12:44;;;;;;;32.13;20.23;;;;;;;;;;2079573;28;20204;-51
2020/12/02 01:13:45;;;;;;;33.17;20.60;;;;;;;;;;2081170;28;20204;-57
2020/12/02 01:14:47;;;;;;;30.13;19.43;;;;;;;;;;2071998;28;20732;-55
2020/12/02 01:15:47;;;;;;;34.53;20.63;;;;;;;;;;2072736;28;20185;-57
2020/12/02 01:16:48;;;;;;;29.93;20.40;;;;;;;;;;2078203;28;20176;-53
2020/12/02 01:18:12;;;;;;;34.80;21.40;;;;;;;;;;2078458;28;20173;-58
2020/12/02 01:19:13;;;;;;;28.80;18.70;;;;;;;;;;2080635;28;20847;-58
2020/12/02 01:20:14;;;;;;;34.07;21.10;;;;;;;;;;2070376;28;20184;-54
2020/12/02 01:21:14;;;;;;;32.10;20.10;;;;;;;;;;2060477;28;20232;-53
2020/12/02 01:22:20;;;;;;;30.83;19.97;;;;;;;;;;2068779;28;20261;-54
2020/12/02 01:23:21;;;;;;;30.87;20.10;;;;;;;;;;2072442;28;20180;-58
2020/12/02 01:24:33;;;;;;;31.70;20.33;;;;;;;;;;2079798;28;20541;-55
2020/12/02 01:25:34;;;;;;;31.83;20.50;;;;;;;;;;2073026;28;20157;-54
2020/12/02 01:26:40;;;;;;;29.63;19.70;;;;;;;;;;2078851;28;20671;-60
2020/12/02 01:27:44;;;;;;;33.03;20.33;;;;;;;;;;2073160;28;20248;-59
2020/12/02 01:28:46;;;;;;;33.90;21.20;;;;;;;;;;2069339;28;20174;-54
2020/12/02 01:29:47;;;;;;;34.53;21.80;;;;;;;;;;2074713;28;20216;-56
2020/12/02 01:30:48;;;;;;;37.63;20.73;;;;;;;;;;2075280;28;20193;-54
2020/12/02 01:31:56;;;;;;;32.00;20.60;;;;;;;;;;2082395;28;20187;-53
2020/12/02 01:32:56;;;;;;;36.03;21.57;;;;;;;;;;2075074;28;20288;-55
2020/12/02 01:33:57;;;;;;;32.43;20.60;;;;;;;;;;2066653;28;20356;-52
2020/12/02 01:34:57;;;;;;;33.77;20.83;;;;;;;;;;2067446;28;20177;-55
2020/12/02 01:35:57;;;;;;;34.20;19.97;;;;;;;;;;2079036;28;20173;-57
2020/12/02 01:37:17;;;;;;;34.67;21.40;;;;;;;;;;2073071;28;20649;-59
2020/12/02 01:38:21;;;;;;;34.43;21.43;;;;;;;;;;2072822;28;22641;-60
2020/12/02 01:39:22;;;;;;;34.53;19.67;;;;;;;;;;2079813;28;20265;-57
2020/12/02 01:40:24;;;;;;;35.70;21.20;;;;;;;;;;2076395;28;20707;-54
2020/12/02 01:41:24;;;;;;;35.80;21.27;;;;;;;;;;2079949;28;20552;-58
2020/12/02 01:42:24;;;;;;;34.30;21.47;;;;;;;;;;2081807;28;20271;-54
2020/12/02 01:43:25;;;;;;;34.57;20.57;;;;;;;;;;2081452;28;20184;-53
2020/12/02 01:44:25;;;;;;;36.30;20.13;;;;;;;;;;2059942;28;20171;-56
2020/12/02 01:45:27;;;;;;;32.17;20.63;;;;;;;;;;2060650;28;20253;-53
2020/12/02 01:46:34;;;;;;;32.93;20.73;;;;;;;;;;2073013;28;20264;-58
2020/12/02 01:47:43;;;;;;;34.80;21.10;;;;;;;;;;2064554;28;20173;-59
2020/12/02 01:48:57;;;;;;;36.27;20.20;;;;;;;;;;2066238;28;20174;-57
2020/12/02 01:49:57;;;;;;;33.70;19.80;;;;;;;;;;2079187;28;20184;-56
2020/12/02 01:51:00;;;;;;;30.90;20.37;;;;;;;;;;2073681;28;20181;-56
2020/12/02 01:52:00;;;;;;;35.97;20.77;;;;;;;;;;2071486;28;21771;-52
2020/12/02 01:53:06;;;;;;;36.33;21.47;;;;;;;;;;2078370;28;20170;-59
2020/12/02 01:54:11;;;;;;;31.37;19.80;;;;;;;;;;2074550;28;20802;-57
2020/12/02 01:55:14;;;;;;;29.97;20.63;;;;;;;;;;2075174;28;20187;-52
2020/12/02 01:56:18;;;;;;;32.70;20.77;;;;;;;;;;2074095;28;20312;-52
2020/12/02 01:57:27;;;;;;;29.73;19.60;;;;;;;;;;2078535;28;20276;-54
2020/12/02 01:58:39;;;;;;;33.17;21.20;;;;;;;;;;2074694;28;20180;-52
2020/12/02 01:59:58;;;;;;;31.03;18.90;;;;;;;;;;2081327;28;20199;-51
2020/12/02 02:01:02;;;;;;;31.73;20.73;;;;;;;;;;2078040;28;20172;-55
2020/12/02 02:02:03;;;;;;;30.53;19.60;;;;;;;;;;2069808;28;20604;-56
2020/12/02 02:03:08;;;;;;;33.60;19.70;;;;;;;;;;2068203;28;20252;-55
2020/12/02 02:04:11;;;;;;;32.03;19.33;;;;;;;;;;2077929;28;20678;-56
2020/12/02 02:05:14;;;;;;;33.53;19.70;;;;;;;;;;2073519;28;20180;-60
2020/12/02 02:06:16;;;;;;;29.03;19.73;;;;;;;;;;2076034;28;20175;-56
2020/12/02 02:07:20;;;;;;;33.00;21.00;;;;;;;;;;2070642;28;20188;-55
2020/12/02 02:08:23;;;;;;;31.20;18.67;;;;;;;;;;2073821;28;20165;-55
2020/12/02 02:09:24;;;;;;;35.97;20.53;;;;;;;;;;2070167;28;20251;-57
2020/12/02 02:10:35;;;;;;;37.13;20.67;;;;;;;;;;2072805;28;20227;-58
2020/12/02 02:11:38;;;;;;;41.07;20.63;;;;;;;;;;2080808;28;20624;-54
2020/12/02 02:12:58;;;;;;;39.37;22.13;;;;;;;;;;2072171;28;20276;-55
2020/12/02 02:14:16;;;;;;;37.60;21.03;;;;;;;;;;2061509;28;20609;-56
2020/12/02 02:15:17;;;;;;;33.47;20.63;;;;;;;;;;2068689;28;20283;-54
2020/12/02 02:16:30;;;;;;;41.13;21.37;;;;;;;;;;2066025;28;20174;-55
2020/12/02 02:17:30;;;;;;;33.53;20.77;;;;;;;;;;2067904;28;20300;-57
2020/12/02 02:18:31;;;;;;;35.57;20.83;;;;;;;;;;2066818;28;20247;-56
2020/12/02 02:19:31;;;;;;;42.20;22.90;;;;;;;;;;2071668;28;20259;-56
2020/12/02 02:20:33;;;;;;;38.53;21.40;;;;;;;;;;2064467;28;20170;-54
2020/12/02 02:21:34;;;;;;;42.93;22.83;;;;;;;;;;2065997;28;20683;-57
2020/12/02 02:22:34;;;;;;;37.13;20.47;;;;;;;;;;2079720;28;20183;-56
2020/12/02 02:23:34;;;;;;;45.93;22.37;;;;;;;;;;2073413;28;20208;-59
2020/12/02 02:24:35;;;;;;;45.20;22.33;;;;;;;;;;2081227;28;20184;-54
2020/12/02 02:25:36;;;;;;;40.20;22.90;;;;;;;;;;2069288;28;20182;-56
2020/12/02 02:26:39;;;;;;;44.50;22.63;;;;;;;;;;2075085;28;20181;-53
2020/12/02 02:27:40;;;;;;;37.80;20.70;;;;;;;;;;2080739;28;20184;-56
2020/12/02 02:28:49;;;;;;;38.47;21.80;;;;;;;;;;2069152;28;20174;-55
2020/12/02 02:29:49;;;;;;;42.93;22.27;;;;;;;;;;2072130;28;20193;-54
2020/12/02 02:30:50;;;;;;;45.97;22.67;;;;;;;;;;2075821;28;20634;-53
2020/12/02 02:31:54;;;;;;;38.80;20.53;;;;;;;;;;2072117;28;20210;-55
2020/12/02 02:32:54;;;;;;;44.53;22.73;;;;;;;;;;2079955;28;20184;-54
2020/12/02 02:33:57;;;;;;;46.97;23.17;;;;;;;;;;2075050;28;20242;-57
2020/12/02 02:34:57;;;;;;;44.70;22.03;;;;;;;;;;2078808;28;20184;-60
2020/12/02 02:35:58;;;;;;;43.53;22.03;;;;;;;;;;2075888;28;20208;-56
2020/12/02 02:37:00;;;;;;;42.83;22.30;;;;;;;;;;2076738;28;20259;-57
2020/12/02 02:38:00;;;;;;;41.07;22.77;;;;;;;;;;2071026;28;20184;-55
2020/12/02 02:39:00;;;;;;;42.30;22.53;;;;;;;;;;2077687;28;20197;-56
2020/12/02 02:40:03;;;;;;;43.40;22.57;;;;;;;;;;2070546;28;20270;-54
2020/12/02 02:41:03;;;;;;;41.27;22.47;;;;;;;;;;2073946;28;20176;-54
2020/12/02 02:42:06;;;;;;;39.37;21.60;;;;;;;;;;2076244;28;20938;-55
2020/12/02 02:43:07;;;;;;;45.07;22.33;;;;;;;;;;2074922;28;20173;-55
2020/12/02 02:44:09;;;;;;;42.20;22.67;;;;;;;;;;2070875;28;20837;-54
2020/12/02 02:45:14;;;;;;;37.00;20.03;;;;;;;;;;2075278;28;20594;-56
2020/12/02 02:46:15;;;;;;;40.73;21.13;;;;;;;;;;2072727;28;20186;-54
2020/12/02 02:47:15;;;;;;;41.67;21.37;;;;;;;;;;2077426;28;20172;-58
2020/12/02 02:48:15;;;;;;;39.10;21.57;;;;;;;;;;2076443;28;20176;-54
2020/12/02 02:49:15;;;;;;;44.97;21.73;;;;;;;;;;2078054;28;20203;-54
2020/12/02 02:50:17;;;;;;;42.27;21.30;;;;;;;;;;2073489;28;20252;-56
2020/12/02 02:51:17;;;;;;;44.10;22.50;;;;;;;;;;2078067;28;20176;-53
2020/12/02 02:52:17;;;;;;;40.60;22.13;;;;;;;;;;2072134;28;20914;-54
2020/12/02 02:53:20;;;;;;;44.53;22.20;;;;;;;;;;2075506;28;20180;-54
2020/12/02 02:54:20;;;;;;;48.40;23.77;;;;;;;;;;2070953;28;20806;-53
2020/12/02 02:55:24;;;;;;;42.97;22.97;;;;;;;;;;2072888;28;20188;-58
2020/12/02 02:56:24;;;;;;;45.43;23.50;;;;;;;;;;2064562;28;20852;-57
2020/12/02 02:57:25;;;;;;;47.97;22.67;;;;;;;;;;2070424;28;20228;-59
2020/12/02 02:58:26;;;;;;;48.73;24.03;;;;;;;;;;2079720;28;20548;-54
2020/12/02 02:59:26;;;;;;;39.27;22.40;;;;;;;;;;2066928;28;20252;-53
2020/12/02 03:00:28;;;;;;;44.97;23.47;;;;;;;;;;2064580;28;20625;-55
2020/12/02 03:01:29;;;;;;;42.73;22.20;;;;;;;;;;2079487;28;20172;-53
2020/12/02 03:02:29;;;;;;;41.33;22.20;;;;;;;;;;2080386;28;20674;-57
2020/12/02 03:03:30;;;;;;;46.33;23.17;;;;;;;;;;2059300;28;20729;-57
2020/12/02 03:04:30;;;;;;;42.73;22.80;;;;;;;;;;2062274;28;20178;-53
2020/12/02 03:05:31;;;;;;;45.63;22.80;;;;;;;;;;2063450;28;20170;-55
2020/12/02 03:06:31;;;;;;;43.57;22.37;;;;;;;;;;2063059;28;20186;-51
2020/12/02 03:07:31;;;;;;;42.70;21.60;;;;;;;;;;2063625;28;20181;-59
2020/12/02 03:08:32;;;;;;;46.30;23.17;;;;;;;;;;2071156;28;20207;-57
2020/12/02 03:09:32;;;;;;;44.43;22.03;;;;;;;;;;2071978;28;20211;-53
2020/12/02 03:10:33;;;;;;;38.10;21.30;;;;;;;;;;2079854;28;20175;-54
2020/12/02 03:11:34;;;;;;;41.87;22.37;;;;;;;;;;2071123;28;20176;-55
2020/12/02 03:12:34;;;;;;;37.47;20.73;;;;;;;;;;2077770;28;20263;-51
2020/12/02 03:13:39;;;;;;;44.57;21.80;;;;;;;;;;2076183;28;20205;-57
2020/12/02 03:14:41;;;;;;;43.60;22.37;;;;;;;;;;2084537;28;20180;-60
2020/12/02 03:15:42;;;;;;;39.37;21.63;;;;;;;;;;2074945;28;20200;-61
2020/12/02 03:16:44;;;;;;;41.87;22.10;;;;;;;;;;2073253;28;20564;-57
2020/12/02 03:17:44;;;;;;;43.93;22.40;;;;;;;;;;2061360;28;20178;-56
2020/12/02 03:18:46;;;;;;;37.37;19.73;;;;;;;;;;2079039;28;20288;-56
2020/12/02 03:19:51;;;;;;;38.70;21.27;;;;;;;;;;2071117;28;20194;-57
2020/12/02 03:20:54;;;;;;;41.43;19.63;;;;;;;;;;2079823;28;20535;-53
2020/12/02 03:21:56;;;;;;;36.20;20.50;;;;;;;;;;2059675;28;20662;-59
2020/12/02 03:22:56;;;;;;;39.20;20.87;;;;;;;;;;2061369;28;20253;-55
2020/12/02 03:23:56;;;;;;;35.47;20.10;;;;;;;;;;2066037;28;20677;-59
2020/12/02 03:24:58;;;;;;;36.87;20.33;;;;;;;;;;2068398;28;20798;-58
2020/12/02 03:25:58;;;;;;;35.03;19.67;;;;;;;;;;2066235;28;20674;-56
2020/12/02 03:26:58;;;;;;;40.00;21.23;;;;;;;;;;2066321;28;20197;-55
2020/12/02 03:27:59;;;;;;;35.77;19.53;;;;;;;;;;2075479;28;20173;-55
2020/12/02 03:29:00;;;;;;;34.97;21.07;;;;;;;;;;2080099;28;20267;-60
2020/12/02 03:30:00;;;;;;;41.90;21.97;;;;;;;;;;2076611;28;20284;-60
2020/12/02 03:31:02;;;;;;;35.47;20.90;;;;;;;;;;2078347;28;20172;-60
2020/12/02 03:32:02;;;;;;;41.83;22.30;;;;;;;;;;2081068;28;20189;-60
2020/12/02 03:33:03;;;;;;;44.77;21.47;;;;;;;;;;2078290;28;20187;-57
2020/12/02 03:34:05;;;;;;;44.77;22.87;;;;;;;;;;2075785;28;20669;-55
2020/12/02 03:35:05;;;;;;;45.73;23.17;;;;;;;;;;2071224;28;20169;-58
2020/12/02 03:36:05;;;;;;;49.30;24.40;;;;;;;;;;2076500;28;20195;-57
2020/12/02 03:37:06;;;;;;;51.63;24.40;;;;;;;;;;2068313;28;20173;-58
2020/12/02 03:38:06;;;;;;;64.90;26.90;;;;;;;;;;2071966;28;20638;-55
2020/12/02 03:39:07;;;;;;;50.50;25.47;;;;;;;;;;2078210;28;20168;-54
2020/12/02 03:40:09;;;;;;;54.07;25.93;;;;;;;;;;2073925;28;20181;-55
2020/12/02 03:41:10;;;;;;;54.37;26.43;;;;;;;;;;2071892;28;20180;-58
2020/12/02 03:42:10;;;;;;;64.37;26.30;;;;;;;;;;2075864;28;20203;-57
2020/12/02 03:43:10;;;;;;;63.70;27.37;;;;;;;;;;2075782;28;20184;-55
2020/12/02 03:44:11;;;;;;;70.27;29.13;;;;;;;;;;2078619;28;20180;-55
2020/12/02 03:45:11;;;;;;;54.20;28.20;;;;;;;;;;2068016;28;20184;-53
2020/12/02 03:46:12;;;;;;;56.23;28.33;;;;;;;;;;2068458;28;20192;-55
2020/12/02 03:47:12;;;;;;;68.97;32.10;;;;;;;;;;2076790;28;20263;-58
2020/12/02 03:48:14;;;;;;;68.33;29.30;;;;;;;;;;2076450;28;20204;-56
2020/12/02 03:49:14;;;;;;;60.17;30.70;;;;;;;;;;2077057;28;20184;-55
2020/12/02 03:50:15;;;;;;;84.10;33.67;;;;;;;;;;2076101;28;20519;-57
2020/12/02 03:51:15;;;;;;;65.97;32.07;;;;;;;;;;2075450;28;20246;-53
2020/12/02 03:52:15;;;;;;;66.13;33.83;;;;;;;;;;2077913;28;20191;-57
2020/12/02 03:53:16;;;;;;;70.13;32.90;;;;;;;;;;2074814;28;20207;-55
2020/12/02 03:54:16;;;;;;;75.10;34.87;;;;;;;;;;2075961;28;20237;-59
2020/12/02 03:55:17;;;;;;;75.10;35.87;;;;;;;;;;2077640;28;20172;-57
2020/12/02 03:56:19;;;;;;;78.43;35.93;;;;;;;;;;2068477;28;20173;-58
2020/12/02 03:57:19;;;;;;;70.67;34.97;;;;;;;;;;2066607;28;20517;-56
2020/12/02 03:58:19;;;;;;;76.97;36.60;;;;;;;;;;2069874;28;20574;-55
2020/12/02 03:59:20;;;;;;;76.10;37.37;;;;;;;;;;2067030;28;20181;-59
2020/12/02 04:00:20;;;;;;;83.23;38.07;;;;;;;;;;2071838;28;20662;-58
2020/12/02 04:01:20;;;;;;;86.63;39.23;;;;;;;;;;2064823;28;20239;-56
2020/12/02 04:02:21;;;;;;;79.93;38.07;;;;;;;;;;2069976;28;20211;-59
2020/12/02 04:03:21;;;;;;;76.00;38.57;;;;;;;;;;2075213;28;20200;-57
2020/12/02 04:04:21;;;;;;;83.77;39.03;;;;;;;;;;2077854;28;20226;-59
2020/12/02 04:05:22;;;;;;;75.90;40.03;;;;;;;;;;2074661;28;20173;-56
2020/12/02 04:06:22;;;;;;;83.73;40.73;;;;;;;;;;2078621;28;20792;-54
2020/12/02 04:07:22;;;;;;;78.07;40.00;;;;;;;;;;2071002;28;20833;-53
2020/12/02 04:08:22;;;;;;;86.57;42.10;;;;;;;;;;2078056;28;20172;-57
2020/12/02 04:09:23;;;;;;;86.40;40.90;;;;;;;;;;2080229;28;20196;-53
2020/12/02 04:10:23;;;;;;;84.00;40.80;;;;;;;;;;2075560;28;20536;-56
2020/12/02 04:11:23;;;;;;;80.00;40.57;;;;;;;;;;2078244;28;20648;-59
2020/12/02 04:12:23;;;;;;;84.23;40.97;;;;;;;;;;2075144;28;20173;-60
2020/12/02 04:13:23;;;;;;;78.03;39.70;;;;;;;;;;2078551;28;20606;-55
2020/12/02 04:14:24;;;;;;;86.40;42.23;;;;;;;;;;2076317;28;20173;-56
2020/12/02 04:15:25;;;;;;;88.50;44.60;;;;;;;;;;2071059;28;20263;-54
2020/12/02 04:16:26;;;;;;;80.73;40.67;;;;;;;;;;2080418;28;20798;-53
2020/12/02 04:17:26;;;;;;;82.97;41.87;;;;;;;;;;2052921;28;20183;-57
2020/12/02 04:18:27;;;;;;;86.10;42.63;;;;;;;;;;2062691;28;20186;-59
2020/12/02 04:19:27;;;;;;;83.30;42.43;;;;;;;;;;2077057;28;20226;-57
2020/12/02 04:20:27;;;;;;;87.67;41.63;;;;;;;;;;2073533;28;20255;-58
2020/12/02 04:21:28;;;;;;;85.47;43.00;;;;;;;;;;2074922;28;20164;-57
2020/12/02 04:22:28;;;;;;;97.10;44.70;;;;;;;;;;2078099;28;20515;-59
2020/12/02 04:23:28;;;;;;;85.97;42.93;;;;;;;;;;2077116;28;20172;-57
2020/12/02 04:24:28;;;;;;;78.60;42.43;;;;;;;;;;2073246;28;20215;-55
2020/12/02 04:25:29;;;;;;;94.40;43.90;;;;;;;;;;2071265;28;20267;-56
2020/12/02 04:26:29;;;;;;;87.60;43.63;;;;;;;;;;2066638;28;20260;-57
2020/12/02 04:27:29;;;;;;;85.07;43.97;;;;;;;;;;2071881;28;20165;-54
2020/12/02 04:28:29;;;;;;;83.87;43.23;;;;;;;;;;2078256;28;20168;-52
2020/12/02 04:29:30;;;;;;;89.40;45.47;;;;;;;;;;2072910;28;22390;-57
2020/12/02 04:30:30;;;;;;;85.33;44.10;;;;;;;;;;2072987;28;20204;-57
2020/12/02 04:31:30;;;;;;;88.13;44.50;;;;;;;;;;2079580;28;20202;-57
2020/12/02 04:32:31;;;;;;;87.33;44.17;;;;;;;;;;2079423;28;20172;-58
2020/12/02 04:33:31;;;;;;;79.80;40.97;;;;;;;;;;2075068;28;20852;-55
2020/12/02 04:34:31;;;;;;;82.87;44.00;;;;;;;;;;2076316;28;20618;-57
2020/12/02 04:35:31;;;;;;;84.13;44.10;;;;;;;;;;2072366;28;20177;-54
2020/12/02 04:36:32;;;;;;;80.33;40.17;;;;;;;;;;2074803;28;20181;-56
2020/12/02 04:37:33;;;;;;;87.67;43.37;;;;;;;;;;2078385;28;20255;-59
2020/12/02 04:38:33;;;;;;;82.87;43.10;;;;;;;;;;2070970;28;20174;-59
2020/12/02 04:39:33;;;;;;;85.07;42.27;;;;;;;;;;2079095;28;20282;-58
2020/12/02 04:40:35;;;;;;;80.37;42.03;;;;;;;;;;2072986;28;20169;-57
2020/12/02 04:41:35;;;;;;;77.53;42.83;;;;;;;;;;2080360;28;20180;-56
2020/12/02 04:42:39;;;;;;;77.50;41.70;;;;;;;;;;2072936;28;20192;-52
2020/12/02 04:43:40;;;;;;;80.53;42.90;;;;;;;;;;2079990;28;20184;-57
2020/12/02 04:44:41;;;;;;;78.40;40.07;;;;;;;;;;2070266;28;20259;-55
2020/12/02 04:45:41;;;;;;;73.57;41.27;;;;;;;;;;2072991;28;20243;-58
2020/12/02 04:46:41;;;;;;;75.40;41.53;;;;;;;;;;2074488;28;20265;-57
2020/12/02 04:47:42;;;;;;;76.30;39.97;;;;;;;;;;2081213;28;20319;-59
2020/12/02 04:48:44;;;;;;;71.77;40.73;;;;;;;;;;2066719;28;20706;-58
2020/12/02 04:49:46;;;;;;;76.33;41.23;;;;;;;;;;2079544;28;20198;-56
2020/12/02 04:50:47;;;;;;;71.30;41.07;;;;;;;;;;2067130;28;20181;-58
2020/12/02 04:51:50;;;;;;;77.83;42.10;;;;;;;;;;2079902;28;20657;-56
2020/12/02 04:53:00;;;;;;;71.87;39.83;;;;;;;;;;2074156;28;20223;-58
2020/12/02 04:54:00;;;;;;;71.77;40.33;;;;;;;;;;2077850;28;20203;-57
2020/12/02 04:55:00;;;;;;;74.23;42.00;;;;;;;;;;2072782;28;20172;-58
2020/12/02 04:56:01;;;;;;;78.87;43.13;;;;;;;;;;2072626;28;20189;-57
2020/12/02 04:57:01;;;;;;;72.57;42.23;;;;;;;;;;2065855;28;20215;-58
2020/12/02 04:58:05;;;;;;;72.23;40.60;;;;;;;;;;2071093;28;20181;-59
2020/12/02 04:59:05;;;;;;;72.17;41.93;;;;;;;;;;2068847;28;20165;-57
2020/12/02 05:00:21;;;;;;;79.70;43.47;;;;;;;;;;2064124;28;20189;-55
2020/12/02 05:01:23;;;;;;;78.07;42.33;;;;;;;;;;2078580;28;20550;-57
2020/12/02 05:02:23;;;;;;;81.30;45.07;;;;;;;;;;2072773;28;20171;-58
2020/12/02 05:03:23;;;;;;;75.93;43.03;;;;;;;;;;2072968;28;20188;-59
2020/12/02 05:04:25;;;;;;;75.27;42.07;;;;;;;;;;2076772;28;20200;-57
2020/12/02 05:05:25;;;;;;;77.67;43.23;;;;;;;;;;2065352;28;20201;-58
2020/12/02 05:06:46;;;;;;;77.77;44.17;;;;;;;;;;2064404;28;20177;-57
2020/12/02 05:07:46;;;;;;;73.77;42.93;;;;;;;;;;2065948;28;20224;-57
2020/12/02 05:08:47;;;;;;;84.50;46.10;;;;;;;;;;2072235;28;20185;-62
2020/12/02 05:09:52;;;;;;;78.33;44.20;;;;;;;;;;2057583;28;20620;-57
2020/12/02 05:10:54;;;;;;;76.03;42.27;;;;;;;;;;2059488;28;20851;-57
2020/12/02 05:12:03;;;;;;;80.37;44.77;;;;;;;;;;2077214;28;20184;-49
2020/12/02 05:13:08;;;;;;;78.93;44.13;;;;;;;;;;2078781;28;20212;-48
2020/12/02 05:14:13;;;;;;;77.37;44.47;;;;;;;;;;2074122;28;20687;-55
2020/12/02 05:15:19;;;;;;;82.13;45.50;;;;;;;;;;2076819;28;20200;-57
2020/12/02 05:16:19;;;;;;;79.83;43.40;;;;;;;;;;2079738;28;20180;-49
2020/12/02 05:17:21;;;;;;;81.00;45.53;;;;;;;;;;2077290;28;20188;-58
2020/12/02 05:18:23;;;;;;;82.13;44.53;;;;;;;;;;2076907;28;20180;-54
2020/12/02 05:19:24;;;;;;;78.77;44.03;;;;;;;;;;2073124;28;20692;-55
2020/12/02 05:20:24;;;;;;;83.87;44.60;;;;;;;;;;2065940;28;20184;-57
2020/12/02 05:21:28;;;;;;;87.83;44.80;;;;;;;;;;2068448;28;20170;-54
2020/12/02 05:22:32;;;;;;;75.37;44.37;;;;;;;;;;2080555;28;20180;-56
2020/12/02 05:23:33;;;;;;;77.90;43.73;;;;;;;;;;2070516;28;20725;-54
2020/12/02 05:24:41;;;;;;;79.63;42.30;;;;;;;;;;2083375;28;20179;-55
2020/12/02 05:25:41;;;;;;;77.73;44.20;;;;;;;;;;2068565;28;20650;-55
2020/12/02 05:26:46;;;;;;;74.10;44.27;;;;;;;;;;2083554;28;20191;-57
2020/12/02 05:27:48;;;;;;;80.77;44.93;;;;;;;;;;2075593;28;20931;-57
2020/12/02 05:28:49;;;;;;;82.73;45.70;;;;;;;;;;2083083;28;20831;-60
2020/12/02 05:29:56;;;;;;;85.63;46.33;;;;;;;;;;2076010;28;20820;-55
2020/12/02 05:31:14;;;;;;;84.70;44.83;;;;;;;;;;2076416;28;20243;-59
2020/12/02 05:32:20;;;;;;;82.47;44.50;;;;;;;;;;2077998;28;20710;-59
2020/12/02 05:33:22;;;;;;;79.70;46.27;;;;;;;;;;2072588;28;20174;-60
2020/12/02 05:34:22;;;;;;;83.27;46.10;;;;;;;;;;2077059;28;20266;-61
2020/12/02 05:35:22;;;;;;;80.13;42.37;;;;;;;;;;2067247;28;20165;-60
2020/12/02 05:36:32;;;;;;;80.43;44.40;;;;;;;;;;2057249;28;20230;-56
2020/12/02 05:37:44;;;;;;;78.43;44.67;;;;;;;;;;2072768;28;20657;-59
2020/12/02 05:38:55;;;;;;;79.30;45.03;;;;;;;;;;2066795;28;20832;-59
2020/12/02 05:39:58;;;;;;;76.43;43.90;;;;;;;;;;2080218;28;20199;-56
2020/12/02 05:40:58;;;;;;;82.40;43.57;;;;;;;;;;2070934;28;20208;-57
2020/12/02 05:41:59;;;;;;;76.33;43.63;;;;;;;;;;2080851;28;20180;-58
2020/12/02 05:43:01;;;;;;;81.00;44.17;;;;;;;;;;2076189;28;20228;-60
2020/12/02 05:44:22;;;;;;;78.13;44.10;;;;;;;;;;2067925;28;20252;-60
2020/12/02 05:45:35;;;;;;;77.40;43.83;;;;;;;;;;2058928;28;20543;-58
2020/12/02 05:46:39;;;;;;;76.63;43.60;;;;;;;;;;2074547;28;20876;-58
2020/12/02 05:47:40;;;;;;;77.50;43.60;;;;;;;;;;2072991;28;20172;-58
2020/12/02 05:48:42;;;;;;;78.73;41.73;;;;;;;;;;2065428;28;20657;-56
2020/12/02 05:49:54;;;;;;;81.83;43.20;;;;;;;;;;2079167;28;20208;-60
2020/12/02 05:50:55;;;;;;;80.43;42.07;;;;;;;;;;2069897;28;20530;-61
2020/12/02 05:51:55;;;;;;;76.40;40.90;;;;;;;;;;2069533;28;20567;-62
2020/12/02 05:53:10;;;;;;;69.87;41.63;;;;;;;;;;2070653;28;20191;-58
2020/12/02 05:54:14;;;;;;;73.77;41.17;;;;;;;;;;2077072;28;20191;-60
2020/12/02 05:55:22;;;;;;;74.13;40.53;;;;;;;;;;2067621;28;20650;-59
2020/12/02 05:56:22;;;;;;;74.13;42.63;;;;;;;;;;2071921;28;20743;-59
2020/12/02 05:57:22;;;;;;;76.17;42.20;;;;;;;;;;2074809;28;20176;-59
2020/12/02 05:58:27;;;;;;;72.27;42.70;;;;;;;;;;2076901;28;20642;-58
2020/12/02 05:59:27;;;;;;;73.00;40.97;;;;;;;;;;2074911;28;20197;-57
2020/12/02 06:00:28;;;;;;;75.43;42.67;;;;;;;;;;2076898;28;20736;-56
2020/12/02 06:01:29;;;;;;;76.33;42.97;;;;;;;;;;2075628;28;20252;-56
2020/12/02 06:02:29;;;;;;;79.03;42.70;;;;;;;;;;2071900;28;20672;-58